createdAt,value
2023-01-19T00:01:36.542Z,98912.88
2023-01-19T00:04:03.416Z,98902.88
2023-01-19T00:06:31.416Z,98894.22
2023-01-19T00:08:58.296Z,98889.75
2023-01-19T00:11:25.163Z,98898.41
2023-01-19T00:13:51.954Z,98906.94
2023-01-19T00:16:22.983Z,98902.34
2023-01-19T00:18:53.330Z,98905.97
2023-01-19T00:21:21.821Z,98907.63
2023-01-19T00:23:51.096Z,98904.59
2023-01-19T00:26:18.908Z,98894.16
2023-01-19T00:28:45.979Z,98894.41
2023-01-19T00:31:12.946Z,98895.81
2023-01-19T00:33:39.821Z,98908.97
2023-01-19T00:36:07.435Z,98908.81
2023-01-19T00:38:34.063Z,98900.75
2023-01-19T00:41:00.704Z,98914.81
2023-01-19T00:43:28.148Z,98912.88
2023-01-19T00:45:54.899Z,98897.72
2023-01-19T00:48:21.846Z,98907.22
2023-01-19T00:50:49.206Z,98898.31
2023-01-19T00:53:16.106Z,98900.81
2023-01-19T00:55:43.203Z,98897.47
2023-01-19T00:58:09.908Z,98899.13
2023-01-19T01:00:36.835Z,98892.75
2023-01-19T01:03:04.087Z,98884.06
2023-01-19T01:05:31.127Z,98887.44
2023-01-19T01:07:58.083Z,98890.81
2023-01-19T01:10:29.593Z,98899.34
2023-01-19T01:12:58.693Z,98890.41
2023-01-19T01:15:28.104Z,98891.41
2023-01-19T01:17:56.085Z,98881.63
2023-01-19T01:20:30.229Z,98891.84
2023-01-19T01:22:58.610Z,98892.78
2023-01-19T01:25:28.597Z,98892.78
2023-01-19T01:28:02.985Z,98892.69
2023-01-19T01:30:29.818Z,98892.94
2023-01-19T01:32:56.690Z,98891.13
2023-01-19T01:35:24.604Z,98886.22
2023-01-19T01:37:51.253Z,98885.94
2023-01-19T01:40:20.159Z,98891.56
2023-01-19T01:42:47.098Z,98889.31
2023-01-19T01:45:38.433Z,98890.63
2023-01-19T01:48:16.631Z,98900.25
2023-01-19T01:51:39.254Z,98895.78
2023-01-19T01:54:35.340Z,98896.25
2023-01-19T01:57:12.256Z,98894.44
2023-01-19T01:59:48.579Z,98895.03
2023-01-19T02:02:44.415Z,98888.63
2023-01-19T02:05:19.935Z,98886.09
2023-01-19T02:08:15.264Z,98881.63
2023-01-19T02:11:03.173Z,98883.16
2023-01-19T02:13:34.099Z,98886.53
2023-01-19T02:16:07.961Z,98883.03
2023-01-19T02:18:37.222Z,98884.59
2023-01-19T02:21:39.822Z,98876.50
2023-01-19T02:24:07.773Z,98875.53
2023-01-19T02:26:43.075Z,98881.09
2023-01-19T02:29:24.939Z,98874.41
2023-01-19T02:31:52.815Z,98884.63
2023-01-19T02:34:22.734Z,98886.59
2023-01-19T02:37:00.224Z,98874.19
2023-01-19T02:39:52.488Z,98877.22
2023-01-19T02:42:29.714Z,98872.16
2023-01-19T02:44:58.259Z,98874.88
2023-01-19T02:47:26.661Z,98867.19
2023-01-19T02:50:01.084Z,98863.81
2023-01-19T02:52:28.603Z,98871.22
2023-01-19T02:55:27.991Z,98878.88
2023-01-19T02:58:15.092Z,98867.31
2023-01-19T03:01:27.798Z,98867.31
2023-01-19T03:04:24.671Z,98871.53
2023-01-19T03:07:13.313Z,98872.34
2023-01-19T03:10:57.801Z,98876.31
2023-01-19T03:13:54.017Z,98874.34
2023-01-19T03:16:51.221Z,98879.53
2023-01-19T03:19:27.541Z,98868.06
2023-01-19T03:22:13.727Z,98866.84
2023-01-19T03:24:48.719Z,98869.50
2023-01-19T03:27:28.480Z,98865.03
2023-01-19T03:30:11.086Z,98858.03
2023-01-19T03:32:50.018Z,98863.63
2023-01-19T03:35:23.542Z,98860.88
2023-01-19T03:37:58.193Z,98858.09
2023-01-19T03:40:32.646Z,98845.66
2023-01-19T03:43:03.404Z,98853.81
2023-01-19T03:45:39.605Z,98863.69
2023-01-19T03:48:08.266Z,98865.38
2023-01-19T03:50:35.550Z,98872.81
2023-01-19T03:53:11.480Z,98868.59
2023-01-19T03:55:44.944Z,98872.81
2023-01-19T03:58:11.946Z,98869.00
2023-01-19T04:00:43.288Z,98868.47
2023-01-19T04:03:18.671Z,98856.59
2023-01-19T04:05:59.845Z,98855.22
2023-01-19T04:08:26.876Z,98853.41
2023-01-19T04:10:54.097Z,98864.25
2023-01-19T04:13:20.857Z,98864.97
2023-01-19T04:15:47.792Z,98857.88
2023-01-19T04:18:14.554Z,98847.63
2023-01-19T04:20:41.667Z,98865.94
2023-01-19T04:23:09.643Z,98856.59
2023-01-19T04:25:41.610Z,98848.78
2023-01-19T04:28:11.880Z,98856.75
2023-01-19T04:30:38.804Z,98858.31
2023-01-19T04:33:05.840Z,98850.19
2023-01-19T04:35:34.214Z,98837.63
2023-01-19T04:38:01.017Z,98858.31
2023-01-19T04:40:37.938Z,98868.63
2023-01-19T04:43:04.979Z,98867.50
2023-01-19T04:45:31.763Z,98866.25
2023-01-19T04:48:15.777Z,98868.91
2023-01-19T04:50:43.826Z,98870.16
2023-01-19T04:53:16.302Z,98880.13
2023-01-19T04:55:57.834Z,98882.22
2023-01-19T04:58:24.681Z,98864.03
2023-01-19T05:00:53.152Z,98867.97
2023-01-19T05:03:20.416Z,98870.16
2023-01-19T05:05:56.780Z,98869.22
2023-01-19T05:08:24.477Z,98878.84
2023-01-19T05:11:12.468Z,98857.38
2023-01-19T05:13:44.560Z,98875.25
2023-01-19T05:16:12.036Z,98867.00
2023-01-19T05:22:49.015Z,98860.13
2023-01-19T05:25:16.482Z,98863.09
2023-01-19T05:27:49.005Z,98859.59
2023-01-19T05:30:22.980Z,98861.41
2023-01-19T05:32:49.859Z,98862.25
2023-01-19T05:35:27.752Z,98862.09
2023-01-19T05:37:58.897Z,98866.19
2023-01-19T05:40:25.880Z,98862.97
2023-01-19T05:42:53.484Z,98863.94
2023-01-19T05:45:20.223Z,98859.75
2023-01-19T05:47:46.896Z,98866.75
2023-01-19T05:50:14.733Z,98855.44
2023-01-19T05:52:46.068Z,98847.72
2023-01-19T07:47:55.820Z,98949.91
2023-01-19T07:50:25.434Z,98950.06
2023-01-19T07:52:53.612Z,98953.28
2023-01-19T07:55:21.587Z,98960.53
2023-01-19T07:57:51.991Z,98964.72
2023-01-19T08:00:24.583Z,98969.09
2023-01-19T08:02:53.742Z,98977.75
2023-01-19T08:05:23.388Z,98970.19
2023-01-19T08:07:52.640Z,98979.00
2023-01-19T08:10:23.016Z,98990.44
2023-01-19T08:12:52.822Z,98988.06
2023-01-19T08:15:24.040Z,99000.25
2023-01-19T08:18:05.865Z,98996.88
2023-01-19T08:20:32.973Z,99011.69
2023-01-19T08:23:00.357Z,99013.38
2023-01-19T08:25:45.337Z,99017.72
2023-01-19T08:28:16.285Z,99024.44
2023-01-19T08:30:45.012Z,99023.72
2023-01-19T08:33:14.974Z,99032.09
2023-01-19T08:36:02.550Z,99034.56
2023-01-19T08:38:29.244Z,99040.84
2023-01-19T08:40:56.157Z,99047.53
2023-01-19T08:43:25.426Z,99041.91
2023-01-19T08:45:55.774Z,99050.72
2023-01-19T08:48:24.834Z,99046.81
2023-01-19T08:50:55.336Z,99053.53
2023-01-19T08:53:28.402Z,99055.97
2023-01-19T08:55:59.939Z,99059.88
2023-01-19T08:58:27.715Z,99045.78
2023-01-19T09:01:00.710Z,99054.19
2023-01-19T09:03:28.814Z,99065.13
2023-01-19T09:05:55.620Z,99074.78
2023-01-19T09:08:22.462Z,99069.47
2023-01-19T09:10:51.772Z,99080.78
2023-01-19T09:13:22.126Z,99070.84
2023-01-19T09:15:49.990Z,99076.56
2023-01-19T09:18:25.090Z,99085.84
2023-01-19T09:20:58.049Z,99089.91
2023-01-19T09:23:25.415Z,99090.47
2023-01-19T09:26:04.713Z,99089.53
2023-01-19T09:28:32.061Z,99091.63
2023-01-19T09:30:59.388Z,99108.28
2023-01-19T09:33:26.256Z,99100.47
2023-01-19T09:35:55.429Z,99108.81
2023-01-19T09:38:23.301Z,99107.84
2023-01-19T09:41:24.635Z,99113.88
2023-01-19T09:43:59.584Z,99120.16
2023-01-19T09:46:42.134Z,99124.09
2023-01-19T09:49:36.664Z,99124.09
2023-01-19T09:52:04.001Z,99125.91
2023-01-19T09:54:52.845Z,99127.34
2023-01-19T09:57:25.502Z,99136.28
2023-01-19T09:59:57.840Z,99141.25
2023-01-19T10:03:15.797Z,99136.66
2023-01-19T10:05:47.680Z,99144.63
2023-01-19T10:08:42.509Z,99146.91
2023-01-19T10:11:52.764Z,99154.03
2023-01-19T10:14:43.064Z,99149.44
2023-01-19T10:18:11.979Z,99155.19
2023-01-19T10:20:58.600Z,99160.63
2023-01-19T10:23:47.904Z,99154.53
2023-01-19T10:26:36.345Z,99164.81
2023-01-19T10:29:26.020Z,99162.28
2023-01-19T10:32:12.632Z,99156.56
2023-01-19T10:35:02.719Z,99167.91
2023-01-19T10:37:38.022Z,99177.81
2023-01-19T10:40:50.430Z,99172.66
2023-01-19T10:43:46.059Z,99183.13
2023-01-19T10:46:51.581Z,99182.00
2023-01-19T10:50:21.160Z,99184.66
2023-01-19T11:37:17.287Z,99214.56
2023-01-19T13:49:21.212Z,99273.34
2023-01-19T13:52:29.222Z,99281.75
2023-01-19T13:55:03.461Z,99302.91
2023-01-19T13:57:47.476Z,99300.81
2023-01-19T14:00:28.647Z,99299.00
2023-01-19T14:03:15.949Z,99314.81
2023-01-19T14:05:54.803Z,99322.94
2023-01-19T14:08:23.430Z,99324.34
2023-01-19T14:11:02.343Z,99324.13
2023-01-19T14:13:42.889Z,99333.50
2023-01-19T14:16:18.098Z,99324.53
2023-01-19T14:18:47.859Z,99331.94
2023-01-19T14:21:15.758Z,99339.81
2023-01-19T14:24:16.959Z,99346.53
2023-01-19T14:26:54.675Z,99345.72
2023-01-19T14:29:37.865Z,99355.09
2023-01-19T14:32:09.780Z,99354.97
2023-01-19T14:35:04.400Z,99358.47
2023-01-19T14:37:38.102Z,99362.00
2023-01-19T14:40:13.637Z,99364.66
2023-01-19T14:43:02.701Z,99363.34
2023-01-19T14:45:37.709Z,99360.09
2023-01-19T14:48:19.173Z,99359.41
2023-01-19T14:51:03.216Z,99365.50
2023-01-19T14:53:38.708Z,99370.38
2023-01-19T14:56:10.396Z,99370.38
2023-01-19T14:58:37.214Z,99371.88
2023-01-19T15:01:04.790Z,99370.47
2023-01-19T15:03:44.772Z,99376.22
2023-01-19T15:06:21.577Z,99375.00
2023-01-19T15:08:50.226Z,99378.47
2023-01-19T15:11:37.341Z,99393.38
2023-01-19T15:14:06.654Z,99390.72
2023-01-19T15:16:37.674Z,99390.13
2023-01-19T15:19:04.514Z,99386.16
2023-01-19T15:21:31.332Z,99404.41
2023-01-19T15:23:58.584Z,99401.16
2023-01-19T15:26:27.401Z,99409.84
2023-01-19T15:29:00.099Z,99409.34
2023-01-19T15:31:27.174Z,99407.34
2023-01-19T15:34:00.259Z,99409.72
2023-01-19T15:36:26.915Z,99411.19
2023-01-19T15:38:53.587Z,99424.66
2023-01-19T15:41:31.909Z,99426.31
2023-01-19T15:43:59.604Z,99421.84
2023-01-19T15:46:27.375Z,99426.31
2023-01-19T15:48:54.615Z,99438.06
2023-01-19T15:51:26.085Z,99433.34
2023-01-19T15:53:54.817Z,99441.31
2023-01-19T15:56:31.085Z,99443.50
2023-01-19T15:58:59.316Z,99445.81
2023-01-19T16:01:32.826Z,99451.06
2023-01-19T16:04:03.619Z,99446.16
2023-01-19T16:06:33.261Z,99455.25
2023-01-19T16:09:01.366Z,99461.78
2023-01-19T16:11:32.900Z,99460.34
2023-01-19T16:14:00.418Z,99463.31
2023-01-19T16:16:44.814Z,99467.53
2023-01-19T16:19:15.720Z,99467.31
2023-01-19T16:21:45.577Z,99464.78
2023-01-19T16:24:12.244Z,99476.81
2023-01-19T16:26:38.967Z,99467.53
2023-01-19T16:29:10.397Z,99467.78
2023-01-19T16:31:41.019Z,99476.81
2023-01-19T16:34:09.933Z,99486.03
2023-01-19T16:36:40.991Z,99479.03
2023-01-19T16:39:16.478Z,99479.03
2023-01-19T16:41:46.355Z,99489.66
2023-01-19T16:44:16.303Z,99492.69
2023-01-19T16:46:46.596Z,99487.75
2023-01-19T16:49:19.560Z,99494.50
2023-01-19T16:51:46.745Z,99496.19
2023-01-19T16:54:23.185Z,99496.91
2023-01-19T16:56:53.431Z,99497.06
2023-01-19T16:59:22.246Z,99502.22
2023-01-19T17:01:56.969Z,99498.97
2023-01-19T17:04:24.652Z,99506.22
2023-01-19T17:06:51.461Z,99504.03
2023-01-19T17:09:21.751Z,99513.91
2023-01-19T17:11:55.827Z,99514.75
2023-01-19T17:14:22.591Z,99516.56
2023-01-19T17:16:55.241Z,99522.84
2023-01-19T17:19:26.783Z,99526.59
2023-01-19T17:21:53.495Z,99530.44
2023-01-19T17:35:15.095Z,99552.44
2023-01-19T17:37:44.570Z,99541.91
2023-01-19T17:42:53.018Z,99559.88
2023-01-19T19:26:11.706Z,99623.56
2023-01-19T19:28:43.380Z,99625.47
2023-01-19T19:31:16.573Z,99631.03
2023-01-19T19:39:14.329Z,99638.66
2023-01-19T19:55:12.729Z,99645.94
2023-01-19T20:35:36.131Z,99670.28
2023-01-19T20:38:03.062Z,99681.63
2023-01-19T20:40:29.766Z,99680.13
2023-01-19T20:42:56.549Z,99687.88
2023-01-19T20:45:23.209Z,99688.94
2023-01-19T20:47:49.861Z,99681.75
2023-01-19T20:50:17.032Z,99681.94
2023-01-19T20:52:43.709Z,99688.00
2023-01-19T20:55:10.680Z,99695.28
2023-01-19T20:57:37.438Z,99700.59
2023-01-19T21:00:05.287Z,99696.56
2023-01-19T21:02:31.992Z,99703.16
2023-01-19T21:04:58.705Z,99701.00
2023-01-19T21:07:25.387Z,99707.81
2023-01-19T21:09:52.025Z,99705.38
2023-01-19T21:12:20.488Z,99706.09
2023-01-19T21:14:47.262Z,99717.53
2023-01-19T21:17:13.972Z,99718.06
2023-01-19T21:19:43.087Z,99723.47
2023-01-19T21:22:09.720Z,99721.66
2023-01-19T21:24:39.536Z,99726.09
2023-01-19T21:27:06.311Z,99722.66
2023-01-19T21:29:32.992Z,99731.25
2023-01-19T21:32:01.012Z,99728.44
2023-01-19T21:34:27.666Z,99738.03
2023-01-19T21:36:54.243Z,99739.25
2023-01-19T21:39:21.019Z,99746.25
2023-01-19T21:41:47.674Z,99742.31
2023-01-19T21:44:14.764Z,99754.28
2023-01-19T21:46:41.902Z,99754.06
2023-01-19T21:49:18.439Z,99760.31
2023-01-19T21:51:48.001Z,99759.59
2023-01-19T21:54:15.131Z,99763.53
2023-01-19T21:56:43.249Z,99766.41
2023-01-19T21:59:14.864Z,99773.81
2023-01-19T22:01:45.543Z,99774.56
2023-01-19T22:04:12.706Z,99777.22
2023-01-19T22:06:40.075Z,99769.13
2023-01-19T22:09:09.508Z,99773.25
2023-01-19T22:11:36.348Z,99781.13
2023-01-19T22:14:03.158Z,99779.31
2023-01-19T22:16:30.879Z,99787.03
2023-01-19T22:19:01.915Z,99794.91
2023-01-19T22:21:38.448Z,99793.81
2023-01-19T22:24:06.172Z,99798.94
2023-01-19T22:26:34.610Z,99791.81
2023-01-19T22:29:04.503Z,99798.94
2023-01-19T22:31:31.770Z,99802.31
2023-01-19T22:33:59.178Z,99798.69
2023-01-19T22:36:35.676Z,99797.72
2023-01-19T22:39:11.732Z,99804.75
2023-01-19T22:41:49.585Z,99802.19
2023-01-19T22:44:21.875Z,99811.72
2023-01-19T22:46:56.013Z,99808.97
2023-01-19T22:49:22.875Z,99815.34
2023-01-19T22:51:54.197Z,99815.03
2023-01-19T22:54:22.967Z,99818.31
2023-01-19T22:56:49.794Z,99831.59
2023-01-19T22:59:16.461Z,99828.94
2023-01-19T23:01:44.256Z,99833.59
2023-01-19T23:04:15.943Z,99832.03
2023-01-19T23:06:43.407Z,99832.75
2023-01-19T23:09:14.684Z,99837.94
2023-01-19T23:11:51.276Z,99850.38
2023-01-19T23:14:22.227Z,99851.22
2023-01-19T23:16:49.227Z,99852.09
2023-01-19T23:19:20.661Z,99855.47
2023-01-19T23:21:51.989Z,99864.28
2023-01-19T23:24:19.198Z,99866.81
2023-01-19T23:26:45.804Z,99872.03
2023-01-19T23:29:17.949Z,99875.19
2023-01-19T23:31:50.092Z,99871.81
2023-01-19T23:34:17.467Z,99875.31
2023-01-19T23:36:45.248Z,99880.63
2023-01-19T23:39:21.136Z,99875.81
2023-01-19T23:41:49.211Z,99879.47
2023-01-19T23:44:17.328Z,99887.41
2023-01-19T23:46:44.687Z,99886.44
2023-01-19T23:49:13.030Z,99882.94
2023-01-19T23:51:43.048Z,99887.41
2023-01-19T23:54:09.897Z,99884.34
2023-01-19T23:56:38.740Z,99892.31
2023-01-19T23:59:15.732Z,99894.97
